createdAt,value
2023-05-18T00:01:22.965Z,99.90
2023-05-18T00:03:49.903Z,99.90
2023-05-18T00:06:17.583Z,99.90
2023-05-18T00:08:44.481Z,99.90
2023-05-18T00:11:11.336Z,99.90
2023-05-18T00:13:38.165Z,99.90
2023-05-18T00:16:05.143Z,99.90
2023-05-18T00:18:34.161Z,99.90
2023-05-18T00:21:01.956Z,99.90
2023-05-18T00:23:33.040Z,99.90
2023-05-18T00:26:01.880Z,99.90
2023-05-18T00:28:29.632Z,99.90
2023-05-18T00:30:57.051Z,99.90
2023-05-18T00:33:24.129Z,99.90
2023-05-18T00:35:51.026Z,99.90
2023-05-18T00:38:18.120Z,99.90
2023-05-18T00:40:45.067Z,99.90
2023-05-18T00:43:11.963Z,99.90
2023-05-18T00:45:38.932Z,99.90
2023-05-18T00:48:06.467Z,99.90
2023-05-18T00:50:33.430Z,99.90
2023-05-18T00:53:00.543Z,99.90
2023-05-18T00:55:30.883Z,99.90
2023-05-18T00:58:02.310Z,99.90
2023-05-18T01:00:29.596Z,99.90
2023-05-18T01:02:57.275Z,99.90
2023-05-18T01:05:24.367Z,99.90
2023-05-18T01:07:51.533Z,99.90
2023-05-18T01:10:19.993Z,99.90
2023-05-18T01:13:11.264Z,99.90
2023-05-18T01:15:45.763Z,99.90
2023-05-18T01:18:44.813Z,99.90
2023-05-18T01:21:37.417Z,99.90
2023-05-18T01:24:31.688Z,99.90
2023-05-18T01:27:01.104Z,99.90
2023-05-18T01:29:31.008Z,99.90
2023-05-18T01:31:58.727Z,99.90
2023-05-18T01:34:25.856Z,99.90
2023-05-18T01:36:52.857Z,99.90
2023-05-18T01:39:19.815Z,99.90
2023-05-18T01:41:56.419Z,99.90
2023-05-18T01:44:36.852Z,99.90
2023-05-18T01:47:16.165Z,99.90
2023-05-18T01:50:00.216Z,99.90
2023-05-18T01:52:37.700Z,99.90
2023-05-18T01:55:06.589Z,99.90
2023-05-18T01:57:35.581Z,99.90
2023-05-18T02:00:07.997Z,99.90
2023-05-18T02:02:35.538Z,99.90
2023-05-18T02:05:02.836Z,99.90
2023-05-18T02:07:29.669Z,99.90
2023-05-18T02:09:56.724Z,99.90
2023-05-18T02:12:23.562Z,99.90
2023-05-18T02:14:50.419Z,99.90
2023-05-18T02:17:17.298Z,99.90
2023-05-18T02:19:44.736Z,99.90
2023-05-18T02:22:11.618Z,99.90
2023-05-18T02:24:38.434Z,99.90
2023-05-18T02:27:06.022Z,99.90
2023-05-18T02:29:32.843Z,99.90
2023-05-18T02:31:59.705Z,99.90
2023-05-18T02:34:27.520Z,99.90
2023-05-18T02:36:58.068Z,99.90
2023-05-18T02:39:25.038Z,99.90
2023-05-18T02:41:51.907Z,99.90
2023-05-18T02:44:18.737Z,99.90
2023-05-18T02:46:46.040Z,99.90
2023-05-18T02:49:12.929Z,99.90
2023-05-18T02:51:39.763Z,99.90
2023-05-18T02:54:06.840Z,99.90
2023-05-18T02:56:34.097Z,99.90
2023-05-18T02:59:00.973Z,99.90
2023-05-18T03:01:28.003Z,99.90
2023-05-18T03:03:57.688Z,99.90
2023-05-18T03:06:26.548Z,99.90
2023-05-18T03:08:56.926Z,99.90
2023-05-18T03:11:24.937Z,99.90
2023-05-18T03:13:52.114Z,99.90
2023-05-18T03:16:19.000Z,99.90
2023-05-18T03:18:46.163Z,99.90
2023-05-18T03:21:13.714Z,99.90
2023-05-18T03:23:41.079Z,99.90
2023-05-18T03:26:11.524Z,99.90
2023-05-18T03:28:39.146Z,99.90
2023-05-18T03:31:06.493Z,99.90
2023-05-18T03:33:33.719Z,99.90
2023-05-18T03:36:04.945Z,99.90
2023-05-18T03:38:31.938Z,99.90
2023-05-18T03:40:58.897Z,99.90
2023-05-18T03:43:26.025Z,99.90
2023-05-18T03:45:53.678Z,99.90
2023-05-18T03:48:21.651Z,99.90
2023-05-18T03:50:48.865Z,99.90
2023-05-18T03:53:19.217Z,99.90
2023-05-18T03:55:46.628Z,99.90
2023-05-18T03:58:13.581Z,99.90
2023-05-18T04:00:40.638Z,99.90
2023-05-18T04:03:07.611Z,99.90
2023-05-18T04:05:34.546Z,99.90
2023-05-18T04:08:01.408Z,99.90
2023-05-18T04:10:28.302Z,99.90
2023-05-18T04:12:55.203Z,99.90
2023-05-18T04:15:22.191Z,99.90
2023-05-18T04:17:53.742Z,99.90
2023-05-18T04:20:21.215Z,99.90
2023-05-18T04:22:49.037Z,99.90
2023-05-18T04:25:16.590Z,99.90
2023-05-18T04:27:49.780Z,99.90
2023-05-18T04:30:18.746Z,99.90
2023-05-18T04:32:45.726Z,99.90
2023-05-18T04:35:12.681Z,99.90
2023-05-18T04:37:43.054Z,99.90
2023-05-18T04:40:13.576Z,99.90
2023-05-18T04:42:48.650Z,99.90
2023-05-18T04:45:22.846Z,99.90
2023-05-18T04:47:54.108Z,99.90
2023-05-18T04:50:25.359Z,99.90
2023-05-18T04:52:53.024Z,99.90
2023-05-18T04:55:29.484Z,99.90
2023-05-18T04:57:57.678Z,99.90
2023-05-18T05:00:26.461Z,99.90
2023-05-18T05:02:54.080Z,99.90
2023-05-18T05:05:25.378Z,99.90
2023-05-18T05:07:53.965Z,99.90
2023-05-18T05:10:21.826Z,99.90
2023-05-18T05:12:50.244Z,99.10
2023-05-18T05:15:18.524Z,94.30
2023-05-18T05:17:47.439Z,91.60
2023-05-18T05:20:14.871Z,87.70
2023-05-18T05:22:41.887Z,91.90
2023-05-18T05:25:09.392Z,95.50
2023-05-18T05:27:36.249Z,96.40
2023-05-18T05:30:03.974Z,98.90
2023-05-18T05:32:30.891Z,98.90
2023-05-18T05:34:57.789Z,99.90
2023-05-18T05:37:24.636Z,99.90
2023-05-18T05:39:51.717Z,99.90
2023-05-18T05:42:18.583Z,99.90
2023-05-18T05:44:45.456Z,99.90
2023-05-18T05:47:12.439Z,99.90
2023-05-18T05:49:39.385Z,99.90
2023-05-18T05:52:06.737Z,99.90
2023-05-18T05:54:33.682Z,99.90
2023-05-18T05:57:00.737Z,99.90
2023-05-18T05:59:27.601Z,99.90
2023-05-18T06:01:54.586Z,99.90
2023-05-18T06:04:21.598Z,99.90
2023-05-18T06:06:49.321Z,99.90
2023-05-18T06:09:16.384Z,99.90
2023-05-18T06:11:43.558Z,99.90
2023-05-18T06:14:10.487Z,99.90
2023-05-18T06:16:37.564Z,99.90
2023-05-18T06:19:04.631Z,99.90
2023-05-18T06:21:31.780Z,99.90
2023-05-18T06:23:58.682Z,99.90
2023-05-18T06:26:25.585Z,99.90
2023-05-18T06:28:52.693Z,99.90
2023-05-18T06:31:19.593Z,99.90
2023-05-18T06:33:46.505Z,99.90
2023-05-18T06:36:13.588Z,99.90
2023-05-18T06:38:40.443Z,99.90
2023-05-18T06:41:07.286Z,99.90
2023-05-18T06:43:34.165Z,99.90
2023-05-18T06:46:01.058Z,99.90
2023-05-18T06:48:29.227Z,99.90
2023-05-18T06:50:56.171Z,99.90
2023-05-18T06:53:23.390Z,99.90
2023-05-18T06:55:50.358Z,99.90
2023-05-18T06:58:17.312Z,99.90
2023-05-18T07:00:44.140Z,99.90
2023-05-18T07:03:11.217Z,99.90
2023-05-18T07:05:39.581Z,99.90
2023-05-18T07:08:07.232Z,99.90
2023-05-18T07:10:35.815Z,99.90
2023-05-18T07:13:02.821Z,99.90
2023-05-18T07:15:30.175Z,99.90
2023-05-18T07:17:57.492Z,99.90
2023-05-18T07:20:26.359Z,99.90
2023-05-18T07:22:55.831Z,99.90
2023-05-18T07:25:23.827Z,99.90
2023-05-18T07:27:52.329Z,99.90
2023-05-18T07:30:19.482Z,99.90
2023-05-18T07:32:46.661Z,99.90
2023-05-18T07:35:14.053Z,99.90
2023-05-18T07:37:40.994Z,99.90
2023-05-18T07:40:10.220Z,99.90
2023-05-18T07:42:41.685Z,99.90
2023-05-18T07:45:09.295Z,99.90
2023-05-18T07:47:36.436Z,99.90
2023-05-18T07:50:03.702Z,99.90
2023-05-18T07:52:30.916Z,99.90
2023-05-18T07:54:58.148Z,99.90
2023-05-18T07:57:25.353Z,99.90
2023-05-18T07:59:52.484Z,99.00
2023-05-18T08:02:20.011Z,99.90
2023-05-18T08:04:48.245Z,99.90
2023-05-18T08:07:15.150Z,98.70
2023-05-18T08:09:42.064Z,99.90
2023-05-18T08:12:09.180Z,99.00
2023-05-18T08:14:36.240Z,99.50
2023-05-18T08:17:04.901Z,99.10
2023-05-18T08:19:32.057Z,99.60
2023-05-18T08:21:58.978Z,99.90
2023-05-18T08:24:33.739Z,98.10
2023-05-18T08:27:00.706Z,98.30
2023-05-18T08:29:27.490Z,99.30
2023-05-18T08:31:54.403Z,98.20
2023-05-18T08:34:21.975Z,97.80
2023-05-18T08:36:48.783Z,98.50
2023-05-18T08:39:15.595Z,98.70
2023-05-18T08:42:03.555Z,98.00
2023-05-18T08:44:40.836Z,97.80
2023-05-18T08:47:13.291Z,98.00
2023-05-18T08:49:42.669Z,98.50
2023-05-18T08:52:10.485Z,96.50
2023-05-18T08:54:38.429Z,98.80
2023-05-18T08:57:11.931Z,98.70
2023-05-18T08:59:42.696Z,98.20
2023-05-18T09:02:10.442Z,97.60
2023-05-18T09:04:38.441Z,97.80
2023-05-18T09:07:08.210Z,97.60
2023-05-18T09:09:36.036Z,96.30
2023-05-18T09:12:03.674Z,97.70
2023-05-18T09:14:32.350Z,96.80
2023-05-18T09:16:59.229Z,96.20
2023-05-18T09:19:26.669Z,97.50
2023-05-18T09:21:53.563Z,95.60
2023-05-18T09:24:24.408Z,96.20
2023-05-18T09:26:52.104Z,95.20
2023-05-18T09:29:21.049Z,94.70
2023-05-18T09:31:49.057Z,94.90
2023-05-18T09:34:19.059Z,97.00
2023-05-18T09:36:52.836Z,92.30
2023-05-18T09:39:19.783Z,91.80
2023-05-18T09:41:46.614Z,91.30
2023-05-18T09:44:13.499Z,92.70
2023-05-18T09:46:40.613Z,91.50
2023-05-18T09:49:08.228Z,91.80
2023-05-18T09:51:36.954Z,91.70
2023-05-18T09:54:07.537Z,90.20
2023-05-18T09:56:38.772Z,90.40
2023-05-18T09:59:15.110Z,89.70
2023-05-18T10:02:12.002Z,87.50
2023-05-18T10:04:41.648Z,88.80
2023-05-18T10:07:17.372Z,87.70
2023-05-18T10:09:45.726Z,86.50
2023-05-18T10:12:19.668Z,83.90
2023-05-18T10:14:46.691Z,82.70
2023-05-18T10:17:17.000Z,79.20
2023-05-18T10:19:46.689Z,81.90
2023-05-18T10:22:17.262Z,82.00
2023-05-18T10:24:51.258Z,80.80
2023-05-18T10:27:22.760Z,79.80
2023-05-18T10:29:52.486Z,82.60
2023-05-18T10:32:23.741Z,82.40
2023-05-18T10:34:54.119Z,81.60
2023-05-18T10:37:24.153Z,79.70
2023-05-18T10:39:54.738Z,78.80
2023-05-18T10:42:23.751Z,80.30
2023-05-18T10:44:52.961Z,79.80
2023-05-18T10:47:20.447Z,81.10
2023-05-18T10:49:49.515Z,84.20
2023-05-18T10:52:21.502Z,81.40
2023-05-18T10:54:48.993Z,79.30
2023-05-18T10:57:20.263Z,77.50
2023-05-18T10:59:48.615Z,79.30
2023-05-18T11:02:18.153Z,77.30
2023-05-18T11:04:47.825Z,76.70
2023-05-18T11:07:15.637Z,75.40
2023-05-18T11:09:44.107Z,75.40
2023-05-18T11:12:16.397Z,77.30
2023-05-18T11:14:52.429Z,77.00
2023-05-18T11:17:27.585Z,75.60
2023-05-18T11:20:07.931Z,77.50
2023-05-18T11:23:03.252Z,79.70
2023-05-18T11:25:32.885Z,77.20
2023-05-18T11:28:03.369Z,77.70
2023-05-18T11:30:33.432Z,76.80
2023-05-18T11:33:21.816Z,77.80
2023-05-18T11:36:15.067Z,76.60
2023-05-18T11:39:23.510Z,75.70
2023-05-18T11:42:11.771Z,76.70
2023-05-18T11:44:41.715Z,75.80
2023-05-18T11:47:11.122Z,74.30
2023-05-18T11:49:50.049Z,76.10
2023-05-18T11:52:21.666Z,77.10
2023-05-18T11:54:56.937Z,75.80
2023-05-18T11:57:42.300Z,75.20
2023-05-18T12:00:16.089Z,72.60
2023-05-18T12:02:46.286Z,74.50
2023-05-18T12:05:14.786Z,73.60
2023-05-18T12:07:42.319Z,70.90
2023-05-18T12:10:14.631Z,70.10
2023-05-18T12:12:42.082Z,71.40
2023-05-18T12:15:11.388Z,72.00
2023-05-18T12:17:46.183Z,74.10
2023-05-18T12:20:18.577Z,72.50
2023-05-18T12:22:52.553Z,71.60
2023-05-18T12:25:24.823Z,71.00
2023-05-18T12:27:53.233Z,72.30
2023-05-18T12:30:22.894Z,73.50
2023-05-18T12:32:54.201Z,72.30
2023-05-18T12:35:28.300Z,71.10
2023-05-18T12:38:01.246Z,72.80
2023-05-18T12:40:38.627Z,71.00
2023-05-18T12:43:05.670Z,71.40
2023-05-18T12:45:34.381Z,73.30
2023-05-18T12:48:14.967Z,72.00
2023-05-18T12:50:53.219Z,69.90
2023-05-18T12:53:20.152Z,68.80
2023-05-18T12:55:58.257Z,69.70
2023-05-18T12:58:25.448Z,67.50
2023-05-18T13:00:52.362Z,69.40
2023-05-18T13:03:21.960Z,69.20
2023-05-18T13:06:09.839Z,68.10
2023-05-18T13:08:37.596Z,69.20
2023-05-18T13:11:14.262Z,67.60
2023-05-18T13:14:02.099Z,68.60
2023-05-18T13:16:30.228Z,66.20
2023-05-18T13:19:06.397Z,69.90
2023-05-18T13:21:34.501Z,68.50
2023-05-18T13:24:03.166Z,68.40
2023-05-18T13:26:31.116Z,67.40
2023-05-18T13:28:58.646Z,66.40
2023-05-18T13:31:25.562Z,67.50
2023-05-18T13:33:52.695Z,70.70
2023-05-18T13:36:19.596Z,67.50
2023-05-18T13:38:46.668Z,68.80
2023-05-18T13:41:16.524Z,68.60
2023-05-18T13:43:43.407Z,69.00
2023-05-18T13:46:10.517Z,68.40
2023-05-18T13:48:37.460Z,67.40
2023-05-18T13:51:04.566Z,68.30
2023-05-18T13:53:31.687Z,67.80
2023-05-18T13:55:58.667Z,67.70
2023-05-18T13:58:25.582Z,68.10
2023-05-18T14:00:53.833Z,67.40
2023-05-18T14:03:20.925Z,69.00
2023-05-18T14:05:47.975Z,64.90
2023-05-18T14:08:14.842Z,66.80
2023-05-18T14:10:42.116Z,65.80
2023-05-18T14:13:09.222Z,65.40
2023-05-18T14:15:36.422Z,66.20
2023-05-18T14:18:03.364Z,66.50
2023-05-18T14:20:30.668Z,62.00
2023-05-18T14:22:57.871Z,62.50
2023-05-18T14:25:24.644Z,62.10
2023-05-18T14:27:51.493Z,63.90
2023-05-18T14:30:18.447Z,66.30
2023-05-18T14:32:45.423Z,67.70
2023-05-18T14:35:12.347Z,65.70
2023-05-18T14:37:39.272Z,63.90
2023-05-18T14:40:07.882Z,65.00
2023-05-18T14:42:36.423Z,63.80
2023-05-18T14:45:03.733Z,65.00
2023-05-18T14:47:30.857Z,63.20
2023-05-18T14:49:57.681Z,64.00
2023-05-18T14:52:24.486Z,66.10
2023-05-18T14:54:51.312Z,66.00
2023-05-18T14:57:18.152Z,65.30
2023-05-18T14:59:45.001Z,64.90
2023-05-18T15:02:11.869Z,65.40
2023-05-18T15:04:38.758Z,65.50
2023-05-18T15:07:06.328Z,65.00
2023-05-18T15:09:33.223Z,66.80
2023-05-18T15:12:00.148Z,65.20
2023-05-18T15:14:27.005Z,67.30
2023-05-18T15:16:53.876Z,67.70
2023-05-18T15:19:20.785Z,65.50
2023-05-18T15:21:48.612Z,64.30
2023-05-18T15:24:15.471Z,62.70
2023-05-18T15:26:42.541Z,64.80
2023-05-18T15:29:09.390Z,64.60
2023-05-18T15:31:39.643Z,66.10
2023-05-18T15:34:06.684Z,65.40
2023-05-18T15:36:33.974Z,63.90
2023-05-18T15:39:04.358Z,64.60
2023-05-18T15:41:34.148Z,63.00
2023-05-18T15:44:04.283Z,60.50
2023-05-18T15:46:34.442Z,60.70
2023-05-18T15:49:02.455Z,61.70
2023-05-18T15:51:29.814Z,60.50
2023-05-18T15:53:56.750Z,62.10
2023-05-18T15:56:23.728Z,60.70
2023-05-18T15:58:50.583Z,62.40
2023-05-18T16:01:17.433Z,63.40
2023-05-18T16:03:44.715Z,64.70
2023-05-18T16:06:11.865Z,65.90
2023-05-18T16:08:38.688Z,65.70
2023-05-18T16:11:06.985Z,65.20
2023-05-18T16:13:33.998Z,66.20
2023-05-18T16:16:00.979Z,65.30
2023-05-18T16:18:27.916Z,68.10
2023-05-18T16:20:54.824Z,70.20
2023-05-18T16:23:21.683Z,69.30
2023-05-18T16:25:48.553Z,68.30
2023-05-18T16:28:15.415Z,67.30
2023-05-18T16:30:42.299Z,67.80
2023-05-18T16:33:09.240Z,68.80
2023-05-18T16:35:36.221Z,68.40
2023-05-18T16:38:03.043Z,68.90
2023-05-18T16:40:30.128Z,70.10
2023-05-18T16:42:57.310Z,70.90
2023-05-18T16:45:26.422Z,70.40
2023-05-18T16:47:53.997Z,70.00
2023-05-18T16:50:21.069Z,69.70
2023-05-18T16:52:47.947Z,69.50
2023-05-18T16:55:14.846Z,70.20
2023-05-18T16:57:43.150Z,69.70
2023-05-18T17:00:11.403Z,69.70
2023-05-18T17:02:38.924Z,69.90
2023-05-18T17:05:08.327Z,71.60
2023-05-18T17:07:36.848Z,71.50
2023-05-18T17:10:05.546Z,70.00
2023-05-18T17:12:33.516Z,70.80
2023-05-18T17:15:02.506Z,70.10
2023-05-18T17:17:29.399Z,71.20
2023-05-18T17:19:56.279Z,71.50
2023-05-18T17:22:23.096Z,70.40
2023-05-18T17:24:49.911Z,70.70
2023-05-18T17:27:16.828Z,70.90
2023-05-18T17:29:43.642Z,71.20
2023-05-18T17:32:10.467Z,70.40
2023-05-18T17:34:37.305Z,69.90
2023-05-18T17:37:04.165Z,71.90
2023-05-18T17:39:30.974Z,71.30
2023-05-18T17:41:59.929Z,70.80
2023-05-18T17:44:27.158Z,71.30
2023-05-18T17:46:54.048Z,71.20
2023-05-18T17:49:21.277Z,73.50
2023-05-18T17:51:48.289Z,71.20
2023-05-18T17:54:15.588Z,71.20
2023-05-18T17:56:42.386Z,71.00
2023-05-18T17:59:09.371Z,71.20
2023-05-18T18:01:36.489Z,71.80
2023-05-18T18:04:03.713Z,71.30
2023-05-18T18:06:31.358Z,72.80
2023-05-18T18:08:58.973Z,72.40
2023-05-18T18:11:26.416Z,72.40
2023-05-18T18:13:54.151Z,72.20
2023-05-18T18:16:22.233Z,74.00
2023-05-18T18:18:49.590Z,73.60
2023-05-18T18:21:16.541Z,75.00
2023-05-18T18:23:43.509Z,74.90
2023-05-18T18:26:10.854Z,74.70
2023-05-18T18:28:37.728Z,76.10
2023-05-18T18:31:04.783Z,76.40
2023-05-18T18:33:32.828Z,75.90
2023-05-18T18:36:00.015Z,76.60
2023-05-18T18:38:29.511Z,76.40
2023-05-18T18:41:01.125Z,75.80
2023-05-18T18:43:28.850Z,77.10
2023-05-18T18:45:57.037Z,77.20
2023-05-18T18:48:25.351Z,77.60
2023-05-18T18:50:53.056Z,78.10
2023-05-18T18:53:19.929Z,78.40
2023-05-18T18:55:46.844Z,78.70
2023-05-18T18:58:14.179Z,80.80
2023-05-18T19:00:41.312Z,80.30
2023-05-18T19:03:09.893Z,81.00
2023-05-18T19:05:37.364Z,82.60
2023-05-18T19:08:04.397Z,82.90
2023-05-18T19:10:32.820Z,81.90
2023-05-18T19:13:04.841Z,81.70
2023-05-18T19:15:35.201Z,82.70
2023-05-18T19:18:03.155Z,86.20
2023-05-18T19:20:30.320Z,84.30
2023-05-18T19:22:57.133Z,85.20
2023-05-18T19:25:26.698Z,85.20
2023-05-18T19:27:54.114Z,85.20
2023-05-18T19:30:22.613Z,86.20
2023-05-18T19:32:53.261Z,88.20
2023-05-18T19:35:21.868Z,86.30
2023-05-18T19:37:48.689Z,88.60
2023-05-18T19:40:16.464Z,85.80
2023-05-18T19:42:43.623Z,87.70
2023-05-18T19:45:10.684Z,86.00
2023-05-18T19:47:37.658Z,86.90
2023-05-18T19:50:05.019Z,87.90
2023-05-18T19:52:33.397Z,87.70
2023-05-18T19:55:00.532Z,87.60
2023-05-18T19:57:27.408Z,87.90
2023-05-18T19:59:54.250Z,87.30
2023-05-18T20:02:21.051Z,88.10
2023-05-18T20:04:48.364Z,88.50
2023-05-18T20:07:15.201Z,89.30
2023-05-18T20:09:42.007Z,89.70
2023-05-18T20:12:09.063Z,89.20
2023-05-18T20:14:36.702Z,89.40
2023-05-18T20:17:04.317Z,89.10
2023-05-18T20:19:32.133Z,90.30
2023-05-18T20:21:59.015Z,90.00
2023-05-18T20:24:25.949Z,89.80
2023-05-18T20:26:53.142Z,90.00
2023-05-18T20:29:19.977Z,90.60
2023-05-18T20:31:47.158Z,90.30
2023-05-18T20:34:14.073Z,90.90
2023-05-18T20:36:40.898Z,90.70
2023-05-18T20:39:08.914Z,90.50
2023-05-18T20:41:40.314Z,90.60
2023-05-18T20:44:10.594Z,91.30
2023-05-18T20:46:38.259Z,91.10
2023-05-18T20:49:05.512Z,91.40
2023-05-18T20:51:32.404Z,92.20
2023-05-18T20:53:59.255Z,92.80
2023-05-18T20:56:26.712Z,92.20
2023-05-18T20:58:56.867Z,92.10
2023-05-18T21:01:23.893Z,92.80
2023-05-18T21:03:50.851Z,92.30
2023-05-18T21:06:17.751Z,92.50
2023-05-18T21:08:45.303Z,92.90
2023-05-18T21:11:12.277Z,92.70
2023-05-18T21:13:39.109Z,92.40
2023-05-18T21:16:08.302Z,93.40
2023-05-18T21:18:35.613Z,93.30
2023-05-18T21:21:03.693Z,94.30
2023-05-18T21:23:30.726Z,93.80
2023-05-18T21:25:58.058Z,94.30
2023-05-18T21:28:25.076Z,93.60
2023-05-18T21:30:52.590Z,94.00
2023-05-18T21:33:19.825Z,93.60
2023-05-18T21:35:46.865Z,93.40
2023-05-18T21:38:13.751Z,93.50
2023-05-18T21:40:43.515Z,93.10
2023-05-18T21:43:10.939Z,93.20
2023-05-18T21:45:38.699Z,94.10
2023-05-18T21:48:06.189Z,94.00
2023-05-18T21:50:34.637Z,93.30
2023-05-18T21:53:05.124Z,93.40
2023-05-18T21:55:32.609Z,94.30
2023-05-18T21:57:59.747Z,94.30
2023-05-18T22:00:27.008Z,94.40
2023-05-18T22:02:54.217Z,93.80
2023-05-18T22:05:21.555Z,93.60
2023-05-18T22:07:49.354Z,93.80
2023-05-18T22:10:18.012Z,94.90
2023-05-18T22:12:45.419Z,94.80
2023-05-18T22:15:12.737Z,94.10
2023-05-18T22:17:40.209Z,94.40
2023-05-18T22:20:11.302Z,94.40
2023-05-18T22:22:40.377Z,94.50
2023-05-18T22:25:07.893Z,94.10
2023-05-18T22:27:36.463Z,94.30
2023-05-18T22:30:06.319Z,94.00
2023-05-18T22:32:33.354Z,94.80
2023-05-18T22:35:01.502Z,94.90
2023-05-18T22:37:28.351Z,94.40
2023-05-18T22:39:55.192Z,94.30
2023-05-18T22:42:22.061Z,94.70
2023-05-18T22:44:49.140Z,94.60
2023-05-18T22:47:19.799Z,95.50
2023-05-18T22:49:47.538Z,94.70
2023-05-18T22:52:14.430Z,94.40
2023-05-18T22:54:41.263Z,94.40
2023-05-18T22:57:08.224Z,95.00
2023-05-18T22:59:36.770Z,94.90
2023-05-18T23:02:06.798Z,94.90
2023-05-18T23:04:34.855Z,95.10
2023-05-18T23:07:03.895Z,95.40
2023-05-18T23:09:30.972Z,95.30
2023-05-18T23:11:59.560Z,95.00
2023-05-18T23:14:30.994Z,95.50
2023-05-18T23:17:03.668Z,96.20
2023-05-18T23:19:30.494Z,96.00
2023-05-18T23:21:57.377Z,96.00
2023-05-18T23:24:24.192Z,97.20
2023-05-18T23:26:51.067Z,97.70
2023-05-18T23:29:17.946Z,96.50
2023-05-18T23:31:44.953Z,95.80
2023-05-18T23:34:12.193Z,96.10
2023-05-18T23:36:42.494Z,96.30
2023-05-18T23:39:09.841Z,96.30
2023-05-18T23:41:37.751Z,96.60
2023-05-18T23:44:06.457Z,97.20
2023-05-18T23:46:34.929Z,97.30
2023-05-18T23:49:02.155Z,97.10
2023-05-18T23:51:32.004Z,97.10
2023-05-18T23:54:00.549Z,97.10
2023-05-18T23:56:28.747Z,97.00
2023-05-18T23:58:55.871Z,96.90
